sensor_id;sensor_type;location;lat;lon;timestamp;pressure;altitude;pressure_sealevel;temperature;humidity
66381;BME280;53177;52.648;1.214;2023-02-03T00:01:20;102031.41;;;8.05;82.35
66381;BME280;53177;52.648;1.214;2023-02-03T00:03:47;102024.34;;;8.02;82.25
66381;BME280;53177;52.648;1.214;2023-02-03T00:06:12;102030.50;;;8.01;82.93
66381;BME280;53177;52.648;1.214;2023-02-03T00:08:38;102028.75;;;8.02;83.20
66381;BME280;53177;52.648;1.214;2023-02-03T00:11:04;102027.84;;;8.01;82.90
66381;BME280;53177;52.648;1.214;2023-02-03T00:13:30;102017.25;;;7.95;83.25
66381;BME280;53177;52.648;1.214;2023-02-03T00:15:55;102020.72;;;7.91;83.50
66381;BME280;53177;52.648;1.214;2023-02-03T00:18:20;102016.31;;;7.89;84.13
66381;BME280;53177;52.648;1.214;2023-02-03T00:20:46;102010.16;;;7.88;83.92
66381;BME280;53177;52.648;1.214;2023-02-03T00:23:11;102014.53;;;7.84;84.40
66381;BME280;53177;52.648;1.214;2023-02-03T00:25:38;102009.28;;;7.86;84.26
66381;BME280;53177;52.648;1.214;2023-02-03T00:28:04;102019.78;;;7.84;84.40
66381;BME280;53177;52.648;1.214;2023-02-03T00:30:33;102017.16;;;7.84;84.90
66381;BME280;53177;52.648;1.214;2023-02-03T00:32:58;102029.47;;;7.87;84.88
66381;BME280;53177;52.648;1.214;2023-02-03T00:35:24;102034.72;;;7.82;84.89
66381;BME280;53177;52.648;1.214;2023-02-03T00:37:50;102031.22;;;7.85;84.61
66381;BME280;53177;52.648;1.214;2023-02-03T00:40:19;102030.31;;;7.81;85.32
66381;BME280;53177;52.648;1.214;2023-02-03T00:42:45;102015.38;;;7.82;85.01
66381;BME280;53177;52.648;1.214;2023-02-03T00:45:10;102005.75;;;7.82;85.30
66381;BME280;53177;52.648;1.214;2023-02-03T00:47:36;102000.44;;;7.79;85.61
66381;BME280;53177;52.648;1.214;2023-02-03T00:50:02;101992.53;;;7.78;85.33
66381;BME280;53177;52.648;1.214;2023-02-03T00:52:28;101999.53;;;7.76;85.71
66381;BME280;53177;52.648;1.214;2023-02-03T00:54:53;101999.50;;;7.74;86.04
66381;BME280;53177;52.648;1.214;2023-02-03T00:57:19;102000.41;;;7.75;85.74
66381;BME280;53177;52.648;1.214;2023-02-03T00:59:44;101990.75;;;7.77;85.63
66381;BME280;53177;52.648;1.214;2023-02-03T01:02:09;101978.44;;;7.71;86.01
66381;BME280;53177;52.648;1.214;2023-02-03T01:04:35;101982.78;;;7.68;85.92
66381;BME280;53177;52.648;1.214;2023-02-03T01:07:00;101975.81;;;7.74;85.46
66381;BME280;53177;52.648;1.214;2023-02-03T01:09:26;101974.06;;;7.75;85.58
66381;BME280;53177;52.648;1.214;2023-02-03T01:11:51;101980.25;;;7.78;85.87
66381;BME280;53177;52.648;1.214;2023-02-03T01:14:17;101982.84;;;7.77;85.69
66381;BME280;53177;52.648;1.214;2023-02-03T01:16:42;101971.53;;;7.86;85.46
66381;BME280;53177;52.648;1.214;2023-02-03T01:19:08;101973.28;;;7.85;85.25
66381;BME280;53177;52.648;1.214;2023-02-03T01:21:33;101984.66;;;7.79;85.16
66381;BME280;53177;52.648;1.214;2023-02-03T01:24:00;101981.13;;;7.76;85.53
66381;BME280;53177;52.648;1.214;2023-02-03T01:26:26;101978.47;;;7.76;85.79
66381;BME280;53177;52.648;1.214;2023-02-03T01:28:57;101973.13;;;7.67;86.37
66381;BME280;53177;52.648;1.214;2023-02-03T01:31:26;101979.31;;;7.72;86.11
66381;BME280;53177;52.648;1.214;2023-02-03T01:33:52;101968.78;;;7.73;86.19
66381;BME280;53177;52.648;1.214;2023-02-03T01:36:19;101963.47;;;7.69;86.38
66381;BME280;53177;52.648;1.214;2023-02-03T01:38:45;101969.59;;;7.66;86.33
66381;BME280;53177;52.648;1.214;2023-02-03T01:41:13;101966.13;;;7.70;86.21
66381;BME280;53177;52.648;1.214;2023-02-03T01:43:43;101966.09;;;7.69;86.54
66381;BME280;53177;52.648;1.214;2023-02-03T01:46:31;101978.44;;;7.73;86.16
66381;BME280;53177;52.648;1.214;2023-02-03T01:51:31;101979.28;;;7.70;87.02
66381;BME280;53177;52.648;1.214;2023-02-03T01:53:57;101978.44;;;7.73;86.33
66381;BME280;53177;52.648;1.214;2023-02-03T01:56:24;101962.66;;;7.77;86.06
66381;BME280;53177;52.648;1.214;2023-02-03T01:58:52;101974.06;;;7.76;86.06
66381;BME280;53177;52.648;1.214;2023-02-03T02:01:17;101976.69;;;7.73;86.39
66381;BME280;53177;52.648;1.214;2023-02-03T02:03:51;101981.06;;;7.73;86.47
66381;BME280;53177;52.648;1.214;2023-02-03T02:06:18;101994.28;;;7.76;86.26
66381;BME280;53177;52.648;1.214;2023-02-03T02:08:46;101989.00;;;7.77;86.36
66381;BME280;53177;52.648;1.214;2023-02-03T02:11:12;101981.06;;;7.73;86.47
66381;BME280;53177;52.648;1.214;2023-02-03T02:13:38;101976.63;;;7.69;86.92
66381;BME280;53177;52.648;1.214;2023-02-03T02:22:00;101976.59;;;7.66;86.74
66381;BME280;53177;52.648;1.214;2023-02-03T02:40:41;101973.16;;;7.73;86.46
66381;BME280;53177;52.648;1.214;2023-02-03T02:50:48;101983.81;;;7.85;86.30
66381;BME280;53177;52.648;1.214;2023-02-03T02:53:19;101982.09;;;7.89;85.90
66381;BME280;53177;52.648;1.214;2023-02-03T02:55:45;101989.06;;;7.85;86.49
66381;BME280;53177;52.648;1.214;2023-02-03T02:58:13;101981.25;;;7.93;85.85
66381;BME280;53177;52.648;1.214;2023-02-03T03:00:40;101965.47;;;7.94;86.24
66381;BME280;53177;52.648;1.214;2023-02-03T03:05:41;101984.81;;;7.98;86.22
66381;BME280;53177;52.648;1.214;2023-02-03T03:08:09;101992.69;;;7.96;86.09
66381;BME280;53177;52.648;1.214;2023-02-03T03:10:38;101988.28;;;7.95;86.27
66381;BME280;53177;52.648;1.214;2023-02-03T03:13:08;101982.16;;;7.99;86.02
66381;BME280;53177;52.648;1.214;2023-02-03T03:15:38;101973.34;;;7.96;86.46
66381;BME280;53177;52.648;1.214;2023-02-03T03:18:27;101976.03;;;8.00;86.16
66381;BME280;53177;52.648;1.214;2023-02-03T03:20:56;101983.91;;;7.97;86.06
66381;BME280;53177;52.648;1.214;2023-02-03T03:23:32;102004.13;;;8.00;86.23
66381;BME280;53177;52.648;1.214;2023-02-03T03:26:26;102000.63;;;8.02;86.25
66381;BME280;53177;52.648;1.214;2023-02-03T03:28:58;101988.31;;;8.00;86.28
66381;BME280;53177;52.648;1.214;2023-02-03T03:31:25;101990.06;;;7.96;86.46
66381;BME280;53177;52.648;1.214;2023-02-03T03:33:50;101980.38;;;7.98;86.58
66381;BME280;53177;52.648;1.214;2023-02-03T03:41:46;101997.97;;;7.99;86.52
66381;BME280;53177;52.648;1.214;2023-02-03T03:44:15;101998.84;;;7.98;86.45
66381;BME280;53177;52.648;1.214;2023-02-03T03:46:54;102007.63;;;7.97;86.38
66381;BME280;53177;52.648;1.214;2023-02-03T03:49:24;101976.88;;;7.96;86.44
66381;BME280;53177;52.648;1.214;2023-02-03T03:52:01;102004.09;;;7.94;86.92
66381;BME280;53177;52.648;1.214;2023-02-03T03:54:28;101983.91;;;7.99;86.61
66381;BME280;53177;52.648;1.214;2023-02-03T03:57:06;101979.53;;;7.98;87.08
66381;BME280;53177;52.648;1.214;2023-02-03T03:59:36;101968.19;;;8.05;86.39
66381;BME280;53177;52.648;1.214;2023-02-03T04:02:04;101945.28;;;7.99;86.97
66381;BME280;53177;52.648;1.214;2023-02-03T04:04:32;101989.19;;;7.99;86.90
66381;BME280;53177;52.648;1.214;2023-02-03T04:06:58;101989.16;;;7.96;87.07
66381;BME280;53177;52.648;1.214;2023-02-03T04:09:24;101986.47;;;7.91;87.13
66381;BME280;53177;52.648;1.214;2023-02-03T04:11:49;101994.38;;;7.91;87.60
66381;BME280;53177;52.648;1.214;2023-02-03T04:14:34;102001.44;;;7.91;87.77
66381;BME280;53177;52.648;1.214;2023-02-03T04:17:03;102000.50;;;7.86;87.46
66381;BME280;53177;52.648;1.214;2023-02-03T04:19:28;101998.72;;;7.83;88.05
66381;BME280;53177;52.648;1.214;2023-02-03T04:21:54;102002.25;;;7.85;87.71
66381;BME280;53177;52.648;1.214;2023-02-03T04:24:19;101989.09;;;7.87;87.39
66381;BME280;53177;52.648;1.214;2023-02-03T04:26:45;101992.59;;;7.87;87.61
66381;BME280;53177;52.648;1.214;2023-02-03T04:29:10;101994.31;;;7.82;87.81
66381;BME280;53177;52.648;1.214;2023-02-03T04:31:36;101993.44;;;7.84;88.19
66381;BME280;53177;52.648;1.214;2023-02-03T04:34:03;101991.72;;;7.85;87.81
66381;BME280;53177;52.648;1.214;2023-02-03T04:36:28;101997.03;;;7.93;88.16
66381;BME280;53177;52.648;1.214;2023-02-03T04:38:53;101998.78;;;7.91;87.48
66381;BME280;53177;52.648;1.214;2023-02-03T04:41:19;101989.97;;;7.86;87.71
66381;BME280;53177;52.648;1.214;2023-02-03T04:43:44;102001.41;;;7.89;87.64
66381;BME280;53177;52.648;1.214;2023-02-03T04:46:10;101999.66;;;7.91;88.06
66381;BME280;53177;52.648;1.214;2023-02-03T04:48:35;102004.09;;;7.94;87.59
66381;BME280;53177;52.648;1.214;2023-02-03T04:51:02;101997.06;;;7.96;87.81
66381;BME280;53177;52.648;1.214;2023-02-03T04:53:28;102017.28;;;7.98;87.66
66381;BME280;53177;52.648;1.214;2023-02-03T04:55:54;102021.69;;;7.99;87.34
66381;BME280;53177;52.648;1.214;2023-02-03T04:58:19;102025.19;;;7.97;87.40
66381;BME280;53177;52.648;1.214;2023-02-03T05:00:44;102023.41;;;7.96;87.84
66381;BME280;53177;52.648;1.214;2023-02-03T05:03:10;102021.69;;;7.98;87.81
66381;BME280;53177;52.648;1.214;2023-02-03T05:05:35;102011.13;;;7.96;88.18
66381;BME280;53177;52.648;1.214;2023-02-03T05:08:01;102016.34;;;7.95;88.01
66381;BME280;53177;52.648;1.214;2023-02-03T05:10:27;102029.59;;;8.02;87.97
66381;BME280;53177;52.648;1.214;2023-02-03T05:12:53;102034.03;;;8.05;88.04
66381;BME280;53177;52.648;1.214;2023-02-03T05:15:18;102039.31;;;8.05;87.83
66381;BME280;53177;52.648;1.214;2023-02-03T05:17:43;102042.78;;;8.02;88.20
66381;BME280;53177;52.648;1.214;2023-02-03T05:20:09;102040.19;;;8.05;88.14
66381;BME280;53177;52.648;1.214;2023-02-03T05:22:35;102038.47;;;8.12;87.46
66381;BME280;53177;52.648;1.214;2023-02-03T05:25:01;102042.03;;;8.17;87.96
66381;BME280;53177;52.648;1.214;2023-02-03T05:27:27;102036.72;;;8.14;87.93
66381;BME280;53177;52.648;1.214;2023-02-03T05:29:52;102030.59;;;8.15;87.79
66381;BME280;53177;52.648;1.214;2023-02-03T05:32:17;102020.13;;;8.22;87.54
66381;BME280;53177;52.648;1.214;2023-02-03T05:34:43;102023.59;;;8.15;87.52
66381;BME280;53177;52.648;1.214;2023-02-03T05:37:08;102028.84;;;8.12;87.64
66381;BME280;53177;52.648;1.214;2023-02-03T05:39:34;102012.94;;;8.06;87.82
66381;BME280;53177;52.648;1.214;2023-02-03T05:41:59;102022.59;;;8.06;87.76
66381;BME280;53177;52.648;1.214;2023-02-03T05:44:26;102019.97;;;8.06;88.17
66381;BME280;53177;52.648;1.214;2023-02-03T05:46:54;102030.44;;;7.98;88.31
66381;BME280;53177;52.648;1.214;2023-02-03T05:49:20;102014.66;;;8.00;88.16
66381;BME280;53177;52.648;1.214;2023-02-03T05:51:47;102007.59;;;7.96;88.25
66381;BME280;53177;52.648;1.214;2023-02-03T05:54:13;102009.34;;;7.94;88.98
66381;BME280;53177;52.648;1.214;2023-02-03T05:56:39;102017.22;;;7.92;88.88
66381;BME280;53177;52.648;1.214;2023-02-03T05:59:05;102014.59;;;7.91;88.86
66381;BME280;53177;52.648;1.214;2023-02-03T06:01:31;102018.97;;;7.92;88.65
66381;BME280;53177;52.648;1.214;2023-02-03T06:03:57;102020.72;;;7.90;89.17
66381;BME280;53177;52.648;1.214;2023-02-03T06:06:23;102018.03;;;7.85;89.25
66381;BME280;53177;52.648;1.214;2023-02-03T06:08:48;102011.91;;;7.83;89.15
66381;BME280;53177;52.648;1.214;2023-02-03T06:11:16;102016.28;;;7.82;89.43
66381;BME280;53177;52.648;1.214;2023-02-03T06:13:42;102012.78;;;7.85;88.87
66381;BME280;53177;52.648;1.214;2023-02-03T06:16:07;102025.06;;;7.84;89.20
66381;BME280;53177;52.648;1.214;2023-02-03T06:18:33;102023.28;;;7.83;89.35
66381;BME280;53177;52.648;1.214;2023-02-03T06:20:58;102025.91;;;7.82;89.17
66381;BME280;53177;52.648;1.214;2023-02-03T06:23:23;102041.75;;;7.85;89.23
66381;BME280;53177;52.648;1.214;2023-02-03T06:25:50;102055.75;;;7.81;89.48
66381;BME280;53177;52.648;1.214;2023-02-03T06:28:15;102072.41;;;7.80;89.62
66381;BME280;53177;52.648;1.214;2023-02-03T06:30:41;102077.72;;;7.84;89.07
66381;BME280;53177;52.648;1.214;2023-02-03T06:33:07;102083.81;;;7.80;89.37
66381;BME280;53177;52.648;1.214;2023-02-03T06:35:32;102081.16;;;7.77;89.66
66381;BME280;53177;52.648;1.214;2023-02-03T06:37:58;102073.25;;;7.77;89.41
66381;BME280;53177;52.648;1.214;2023-02-03T06:40:24;102067.97;;;7.74;89.69
66381;BME280;53177;52.648;1.214;2023-02-03T06:42:50;102067.97;;;7.74;89.62
66381;BME280;53177;52.648;1.214;2023-02-03T06:45:16;102068.75;;;7.66;89.92
66381;BME280;53177;52.648;1.214;2023-02-03T06:47:43;102066.97;;;7.63;90.06
66381;BME280;53177;52.648;1.214;2023-02-03T06:50:10;102075.75;;;7.64;89.93
66381;BME280;53177;52.648;1.214;2023-02-03T06:52:37;102065.28;;;7.70;89.90
66381;BME280;53177;52.648;1.214;2023-02-03T06:55:03;102071.38;;;7.64;90.17
66381;BME280;53177;52.648;1.214;2023-02-03T06:57:29;102078.38;;;7.65;90.29
66381;BME280;53177;52.648;1.214;2023-02-03T06:59:54;102080.09;;;7.62;90.27
66381;BME280;53177;52.648;1.214;2023-02-03T07:02:22;102097.69;;;7.63;89.81
66381;BME280;53177;52.648;1.214;2023-02-03T07:04:53;102098.56;;;7.63;89.88
66381;BME280;53177;52.648;1.214;2023-02-03T07:07:27;102089.72;;;7.57;90.16
66381;BME280;53177;52.648;1.214;2023-02-03T07:09:54;102095.81;;;7.54;89.95
66381;BME280;53177;52.648;1.214;2023-02-03T07:12:19;102097.59;;;7.54;90.50
66381;BME280;53177;52.648;1.214;2023-02-03T07:14:45;102086.13;;;7.52;90.30
66381;BME280;53177;52.648;1.214;2023-02-03T07:17:10;102102.75;;;7.48;90.81
66381;BME280;53177;52.648;1.214;2023-02-03T07:19:36;102100.13;;;7.48;90.23
66381;BME280;53177;52.648;1.214;2023-02-03T07:22:01;102099.28;;;7.50;90.54
66381;BME280;53177;52.648;1.214;2023-02-03T07:24:27;102109.75;;;7.47;90.71
66381;BME280;53177;52.648;1.214;2023-02-03T07:26:52;102120.28;;;7.47;90.67
66381;BME280;53177;52.648;1.214;2023-02-03T07:29:18;102121.22;;;7.49;90.24
66381;BME280;53177;52.648;1.214;2023-02-03T07:31:43;102115.13;;;7.53;90.76
66381;BME280;53177;52.648;1.214;2023-02-03T07:34:08;102119.47;;;7.51;90.11
66381;BME280;53177;52.648;1.214;2023-02-03T07:36:34;102119.47;;;7.51;90.74
66381;BME280;53177;52.648;1.214;2023-02-03T07:38:59;102127.38;;;7.50;90.92
66381;BME280;53177;52.648;1.214;2023-02-03T07:41:25;102131.78;;;7.52;90.78
66381;BME280;53177;52.648;1.214;2023-02-03T07:43:50;102139.69;;;7.54;90.95
66381;BME280;53177;52.648;1.214;2023-02-03T07:46:16;102150.28;;;7.60;90.69
66381;BME280;53177;52.648;1.214;2023-02-03T07:48:41;102145.88;;;7.57;90.18
66381;BME280;53177;52.648;1.214;2023-02-03T07:51:07;102145.03;;;7.61;90.61
66381;BME280;53177;52.648;1.214;2023-02-03T07:53:32;102149.41;;;7.59;90.33
66381;BME280;53177;52.648;1.214;2023-02-03T07:56:04;102161.69;;;7.57;90.61
66381;BME280;53177;52.648;1.214;2023-02-03T07:58:29;102175.66;;;7.55;90.86
66381;BME280;53177;52.648;1.214;2023-02-03T08:00:56;102185.34;;;7.56;90.87
66381;BME280;53177;52.648;1.214;2023-02-03T08:03:21;102190.63;;;7.57;91.07
66381;BME280;53177;52.648;1.214;2023-02-03T08:05:47;102177.50;;;7.60;90.88
66381;BME280;53177;52.648;1.214;2023-02-03T08:08:12;102172.31;;;7.66;90.60
66381;BME280;53177;52.648;1.214;2023-02-03T08:10:38;102189.03;;;7.68;90.39
66381;BME280;53177;52.648;1.214;2023-02-03T08:13:04;102203.13;;;7.72;90.38
66381;BME280;53177;52.648;1.214;2023-02-03T08:15:29;102196.94;;;7.68;90.75
66381;BME280;53177;52.648;1.214;2023-02-03T08:17:54;102211.06;;;7.75;90.62
66381;BME280;53177;52.648;1.214;2023-02-03T08:20:21;102225.09;;;7.77;90.93
66381;BME280;53177;52.648;1.214;2023-02-03T08:22:47;102233.00;;;7.77;91.01
66381;BME280;53177;52.648;1.214;2023-02-03T08:25:12;102245.28;;;7.76;91.07
66381;BME280;53177;52.648;1.214;2023-02-03T08:27:38;102247.94;;;7.78;90.84
66381;BME280;53177;52.648;1.214;2023-02-03T08:30:05;102248.91;;;7.83;90.85
66381;BME280;53177;52.648;1.214;2023-02-03T08:32:32;102241.03;;;7.86;90.58
66381;BME280;53177;52.648;1.214;2023-02-03T08:34:58;102244.56;;;7.87;90.37
66381;BME280;53177;52.648;1.214;2023-02-03T08:37:24;102259.59;;;7.97;90.18
66381;BME280;53177;52.648;1.214;2023-02-03T08:39:50;102271.88;;;7.96;90.72
66381;BME280;53177;52.648;1.214;2023-02-03T08:42:16;102259.66;;;8.01;90.69
66381;BME280;53177;52.648;1.214;2023-02-03T08:44:43;102254.41;;;8.01;90.56
66381;BME280;53177;52.648;1.214;2023-02-03T08:47:09;102241.25;;;8.04;90.27
66381;BME280;53177;52.648;1.214;2023-02-03T08:49:35;102252.75;;;8.11;90.18
66381;BME280;53177;52.648;1.214;2023-02-03T08:52:04;102288.84;;;8.16;90.04
66381;BME280;53177;52.648;1.214;2023-02-03T08:54:30;102302.91;;;8.18;89.71
66381;BME280;53177;52.648;1.214;2023-02-03T08:56:56;102305.47;;;8.14;90.10
66381;BME280;53177;52.648;1.214;2023-02-03T08:59:21;102287.03;;;8.12;89.98
66381;BME280;53177;52.648;1.214;2023-02-03T09:01:47;102278.28;;;8.15;89.71
66381;BME280;53177;52.648;1.214;2023-02-03T09:04:14;102270.31;;;8.10;89.94
66381;BME280;53177;52.648;1.214;2023-02-03T09:06:45;102268.59;;;8.14;90.08
66381;BME280;53177;52.648;1.214;2023-02-03T09:09:12;102266.84;;;8.13;90.24
66381;BME280;53177;52.648;1.214;2023-02-03T09:11:39;102271.19;;;8.11;90.22
66381;BME280;53177;52.648;1.214;2023-02-03T09:14:05;102282.66;;;8.13;90.00
66381;BME280;53177;52.648;1.214;2023-02-03T09:16:31;102292.34;;;8.17;89.95
66381;BME280;53177;52.648;1.214;2023-02-03T09:18:56;102298.50;;;8.16;90.25
66381;BME280;53177;52.648;1.214;2023-02-03T09:21:21;102296.84;;;8.24;90.36
66381;BME280;53177;52.648;1.214;2023-02-03T09:23:48;102296.09;;;8.31;89.80
66381;BME280;53177;52.648;1.214;2023-02-03T09:26:15;102291.66;;;8.30;89.95
66381;BME280;53177;52.648;1.214;2023-02-03T09:28:40;102282.97;;;8.37;89.77
66381;BME280;53177;52.648;1.214;2023-02-03T09:31:12;102290.91;;;8.39;89.72
66381;BME280;53177;52.648;1.214;2023-02-03T09:33:39;102312.94;;;8.45;89.29
66381;BME280;53177;52.648;1.214;2023-02-03T09:36:06;102321.75;;;8.49;89.34
66381;BME280;53177;52.648;1.214;2023-02-03T09:38:32;102321.72;;;8.47;89.62
66381;BME280;53177;52.648;1.214;2023-02-03T09:41:06;102336.66;;;8.45;89.95
66381;BME280;53177;52.648;1.214;2023-02-03T09:43:52;102323.53;;;8.51;89.96
66381;BME280;53177;52.648;1.214;2023-02-03T09:46:26;102319.13;;;8.50;89.86
66381;BME280;53177;52.648;1.214;2023-02-03T09:48:57;102334.16;;;8.56;89.83
66381;BME280;53177;52.648;1.214;2023-02-03T09:51:28;102343.91;;;8.66;89.03
66381;BME280;53177;52.648;1.214;2023-02-03T09:53:59;102358.88;;;8.67;89.54
66381;BME280;53177;52.648;1.214;2023-02-03T09:56:31;102355.38;;;8.68;89.33
66381;BME280;53177;52.648;1.214;2023-02-03T09:58:58;102345.75;;;8.73;89.13
66381;BME280;53177;52.648;1.214;2023-02-03T10:01:28;102352.00;;;8.81;89.04
66381;BME280;53177;52.648;1.214;2023-02-03T10:06:45;102366.97;;;8.84;89.32
66381;BME280;53177;52.648;1.214;2023-02-03T10:18:05;102375.06;;;8.97;88.62
66381;BME280;53177;52.648;1.214;2023-02-03T10:20:42;102375.88;;;8.93;88.92
66381;BME280;53177;52.648;1.214;2023-02-03T10:23:14;102376.00;;;9.04;88.40
66381;BME280;53177;52.648;1.214;2023-02-03T10:28:23;102396.19;;;9.00;88.68
66381;BME280;53177;52.648;1.214;2023-02-03T10:31:00;102405.81;;;8.97;88.85
66381;BME280;53177;52.648;1.214;2023-02-03T10:33:29;102399.63;;;8.95;89.25
66381;BME280;53177;52.648;1.214;2023-02-03T10:36:19;102389.16;;;9.01;88.88
66381;BME280;53177;52.648;1.214;2023-02-03T10:41:28;102398.06;;;9.09;88.74
66381;BME280;53177;52.648;1.214;2023-02-03T10:43:55;102402.44;;;9.10;88.76
66381;BME280;53177;52.648;1.214;2023-02-03T10:46:25;102399.81;;;9.11;88.78
66381;BME280;53177;52.648;1.214;2023-02-03T10:48:51;102401.63;;;9.17;88.47
66381;BME280;53177;52.648;1.214;2023-02-03T10:51:21;102413.09;;;9.19;88.42
66381;BME280;53177;52.648;1.214;2023-02-03T10:53:47;102407.91;;;9.26;88.10
66381;BME280;53177;52.648;1.214;2023-02-03T10:56:15;102381.53;;;9.29;88.13
66381;BME280;53177;52.648;1.214;2023-02-03T10:58:47;102383.25;;;9.27;88.15
66381;BME280;53177;52.648;1.214;2023-02-03T11:01:16;102383.28;;;9.29;88.70
66381;BME280;53177;52.648;1.214;2023-02-03T11:04:02;102392.16;;;9.39;87.92
66381;BME280;53177;52.648;1.214;2023-02-03T11:06:30;102401.00;;;9.44;88.03
66381;BME280;53177;52.648;1.214;2023-02-03T11:08:56;102413.34;;;9.46;87.46
66381;BME280;53177;52.648;1.214;2023-02-03T11:11:27;102429.31;;;9.57;87.14
66381;BME280;53177;52.648;1.214;2023-02-03T11:16:31;102438.06;;;9.54;87.46
66381;BME280;53177;52.648;1.214;2023-02-03T11:19:05;102438.03;;;9.48;88.12
66381;BME280;53177;52.648;1.214;2023-02-03T11:24:27;102412.53;;;9.52;87.88
66381;BME280;53177;52.648;1.214;2023-02-03T11:26:59;102403.81;;;9.60;87.74
66381;BME280;53177;52.648;1.214;2023-02-03T11:29:36;102399.47;;;9.67;87.31
66381;BME280;53177;52.648;1.214;2023-02-03T11:32:36;102399.50;;;9.73;87.21
66381;BME280;53177;52.648;1.214;2023-02-03T11:35:15;102405.72;;;9.78;86.78
66381;BME280;53177;52.648;1.214;2023-02-03T11:38:00;102421.53;;;9.75;87.08
66381;BME280;53177;52.648;1.214;2023-02-03T11:40:29;102434.78;;;9.78;87.83
66381;BME280;53177;52.648;1.214;2023-02-03T11:45:27;102438.28;;;9.80;87.12
66381;BME280;53177;52.648;1.214;2023-02-03T11:48:00;102444.47;;;9.79;87.38
66381;BME280;53177;52.648;1.214;2023-02-03T11:55:39;102420.72;;;9.84;87.23
66381;BME280;53177;52.648;1.214;2023-02-03T12:17:31;102454.50;;;10.22;86.45
66381;BME280;53177;52.648;1.214;2023-02-03T12:20:12;102466.88;;;10.28;86.11
66381;BME280;53177;52.648;1.214;2023-02-03T12:31:02;102450.13;;;10.27;86.39
66381;BME280;53177;52.648;1.214;2023-02-03T12:33:41;102445.72;;;10.31;86.30
66381;BME280;53177;52.648;1.214;2023-02-03T12:38:45;102448.41;;;10.36;86.15
66381;BME280;53177;52.648;1.214;2023-02-03T12:41:20;102448.47;;;10.43;86.48
66381;BME280;53177;52.648;1.214;2023-02-03T12:43:52;102460.81;;;10.44;86.59
66381;BME280;53177;52.648;1.214;2023-02-03T12:46:26;102467.03;;;10.49;86.23
66381;BME280;53177;52.648;1.214;2023-02-03T12:49:03;102474.97;;;10.52;86.30
66381;BME280;53177;52.648;1.214;2023-02-03T12:51:44;102474.06;;;10.53;86.50
66381;BME280;53177;52.648;1.214;2023-02-03T12:57:15;102478.56;;;10.66;85.56
66381;BME280;53177;52.648;1.214;2023-02-03T12:59:51;102481.22;;;10.66;85.53
66381;BME280;53177;52.648;1.214;2023-02-03T13:02:25;102490.94;;;10.70;85.52
66381;BME280;53177;52.648;1.214;2023-02-03T13:04:55;102490.97;;;10.75;85.61
66381;BME280;53177;52.648;1.214;2023-02-03T13:10:32;102483.91;;;10.80;85.38
66381;BME280;53177;52.648;1.214;2023-02-03T13:13:02;102493.66;;;10.84;85.35
66381;BME280;53177;52.648;1.214;2023-02-03T13:15:38;102494.53;;;10.85;85.42
66381;BME280;53177;52.648;1.214;2023-02-03T13:18:46;102488.38;;;10.92;85.55
66381;BME280;53177;52.648;1.214;2023-02-03T13:21:04;102490.19;;;10.96;84.81
66381;BME280;53177;52.648;1.214;2023-02-03T13:23:33;102496.34;;;10.96;85.23
66381;BME280;53177;52.648;1.214;2023-02-03T13:26:11;102484.91;;;11.00;85.33
66381;BME280;53177;52.648;1.214;2023-02-03T13:43:03;102472.66;;;11.36;84.08
66381;BME280;53177;52.648;1.214;2023-02-03T13:45:33;102470.03;;;11.42;83.32
66381;BME280;53177;52.648;1.214;2023-02-03T13:48:13;102470.91;;;11.44;83.15
66381;BME280;53177;52.648;1.214;2023-02-03T13:50:40;102466.50;;;11.47;82.95
66381;BME280;53177;52.648;1.214;2023-02-03T13:55:41;102478.88;;;11.69;82.68
66381;BME280;53177;52.648;1.214;2023-02-03T13:58:38;102469.22;;;11.82;81.91
66381;BME280;53177;52.648;1.214;2023-02-03T14:03:48;102469.22;;;11.78;81.34
66381;BME280;53177;52.648;1.214;2023-02-03T14:09:19;102454.19;;;11.77;81.88
66381;BME280;53177;52.648;1.214;2023-02-03T14:11:48;102463.00;;;11.76;81.62
66381;BME280;53177;52.648;1.214;2023-02-03T14:16:41;102463.03;;;11.80;81.78
66381;BME280;53177;52.648;1.214;2023-02-03T14:19:12;102460.38;;;11.88;80.92
66381;BME280;53177;52.648;1.214;2023-02-03T14:21:53;102459.50;;;11.86;81.65
66381;BME280;53177;52.648;1.214;2023-02-03T14:24:20;102454.19;;;11.92;81.24
66381;BME280;53177;52.648;1.214;2023-02-03T14:26:52;102462.13;;;11.92;81.52
66381;BME280;53177;52.648;1.214;2023-02-03T14:29:36;102462.13;;;11.90;81.63
66381;BME280;53177;52.648;1.214;2023-02-03T14:32:03;102459.47;;;11.87;81.69
66381;BME280;53177;52.648;1.214;2023-02-03T14:39:57;102456.84;;;11.78;81.99
66381;BME280;53177;52.648;1.214;2023-02-03T14:53:42;102462.13;;;11.83;81.84
66381;BME280;53177;52.648;1.214;2023-02-03T14:56:26;102463.91;;;11.84;82.55
66381;BME280;53177;52.648;1.214;2023-02-03T14:59:16;102470.06;;;11.90;82.16
66381;BME280;53177;52.648;1.214;2023-02-03T15:06:41;102479.81;;;11.96;82.76
66381;BME280;53177;52.648;1.214;2023-02-03T15:09:32;102486.88;;;11.83;82.67
66381;BME280;53177;52.648;1.214;2023-02-03T15:12:00;102488.63;;;11.83;82.76
66381;BME280;53177;52.648;1.214;2023-02-03T15:14:29;102481.56;;;11.86;83.10
66381;BME280;53177;52.648;1.214;2023-02-03T15:17:21;102493.94;;;11.95;82.18
66381;BME280;53177;52.648;1.214;2023-02-03T15:19:50;102492.19;;;11.82;83.02
66381;BME280;53177;52.648;1.214;2023-02-03T15:22:24;102500.16;;;11.79;83.98
66381;BME280;53177;52.648;1.214;2023-02-03T15:24:52;102497.47;;;11.77;84.46
66381;BME280;53177;52.648;1.214;2023-02-03T15:27:27;102498.38;;;11.78;84.18
66381;BME280;53177;52.648;1.214;2023-02-03T15:29:53;102501.00;;;11.73;83.76
66381;BME280;53177;52.648;1.214;2023-02-03T15:32:25;102501.88;;;11.67;83.34
66381;BME280;53177;52.648;1.214;2023-02-03T15:34:53;102501.84;;;11.69;83.27
66381;BME280;53177;52.648;1.214;2023-02-03T15:37:50;102499.19;;;11.69;83.46
66381;BME280;53177;52.648;1.214;2023-02-03T15:40:22;102500.06;;;11.68;83.57